Portada
METAR-TAF:

METAR-TAF

Aeroports :

Zaqatala, Azerbaidjan

latitud: 41-33-44N, longitud: 46-40-02E, altitud: 330 m

Observació

L'informe es va fer fa 41 minuts, a les 13:00 UTC
Vent 6 kt del Sud/Sud-Est
Temperatura 34°C
Humitat 34%
Pressió 1016 hPa
Visibilitat 10 km o més
Escasses núvols a una alçada de 5000 ft

METAR: UBBY 201300Z 15006KT 9999 FEW050 34/16 Q1016 R33/////// NOSIG RMK MT OP

Hora: 17:41 (13:41 UTC)

Pronòstic

L'informe es va fer fa 2 hores i 41 minuts, a les 11:00 UTC
Pronòstic vàlid del 20 a les 12 UTC al 20 a les 21 UTC
Vent 4 kt amb direcció variable
Visibilitat 10 km o més
Escasses núvols a una alçada de 3500 ft
Núvols disperses a una alçada de 7000 ft

TAF: UBBY 201100Z 2012/2021 VRB04KT 9999 FEW035 SCT070

Observacions i pronòstics meteorològics de més de 4000 aeroports (METAR i TAF).

Les estacions disponibles són els punts grocs i vermells al mapa.

Posi el ratolí al punt desitjat per veure el nom de l'estació.

Feu clic per veure les observacions i els pronòstics meteorològics.

Per canviar el mapa: feu clic els botons verds amb una creu de color negre per apropar; al botó verd amb un guió per allunyar la imatge; o en les fletxes verdes per a mapes adjacents.


METAR-TAF: